createdAt,value
2024-02-18T00:00:10.372Z,6.13
2024-02-18T00:02:38.475Z,6.40
2024-02-18T00:05:07.531Z,5.50
2024-02-18T00:07:37.671Z,5.57
2024-02-18T00:10:08.703Z,6.20
2024-02-18T00:12:36.813Z,5.27
2024-02-18T00:15:05.162Z,6.00
2024-02-18T00:17:33.128Z,4.27
2024-02-18T00:20:01.423Z,5.47
2024-02-18T00:22:29.468Z,5.03
2024-02-18T00:24:58.971Z,4.93
2024-02-18T00:27:27.629Z,4.60
2024-02-18T00:29:55.665Z,4.50
2024-02-18T00:32:23.592Z,3.93
2024-02-18T00:34:51.640Z,4.50
2024-02-18T00:37:19.912Z,3.47
2024-02-18T00:39:48.038Z,4.00
2024-02-18T00:42:17.434Z,3.77
2024-02-18T00:44:46.953Z,3.47
2024-02-18T00:47:14.855Z,4.03
2024-02-18T00:49:43.407Z,3.87
2024-02-18T00:52:11.512Z,4.30
2024-02-18T00:54:39.474Z,3.73
2024-02-18T00:57:07.412Z,3.83
2024-02-18T00:59:36.671Z,3.73
2024-02-18T01:02:04.963Z,3.70
2024-02-18T01:04:32.891Z,4.00
2024-02-18T01:07:00.987Z,3.67
2024-02-18T01:09:28.957Z,3.20
2024-02-18T01:11:57.609Z,3.50
2024-02-18T01:14:25.562Z,4.43
2024-02-18T01:16:54.916Z,3.93
2024-02-18T01:19:22.976Z,3.30
2024-02-18T01:21:51.198Z,4.30
2024-02-18T01:24:19.163Z,3.30
2024-02-18T01:26:47.095Z,3.77
2024-02-18T01:29:15.015Z,3.40
2024-02-18T01:31:43.965Z,3.73
2024-02-18T01:34:13.378Z,3.00
2024-02-18T01:36:41.542Z,3.40
2024-02-18T01:39:09.785Z,3.13
2024-02-18T01:41:38.514Z,3.47
2024-02-18T01:44:06.913Z,3.30
2024-02-18T01:46:35.059Z,3.60
2024-02-18T01:49:03.056Z,3.60
2024-02-18T01:51:32.505Z,3.87
2024-02-18T01:54:00.537Z,2.80
2024-02-18T01:56:28.675Z,3.60
2024-02-18T01:58:56.676Z,3.70
2024-02-18T02:01:24.779Z,3.70
2024-02-18T02:03:55.815Z,3.63
2024-02-18T02:06:24.391Z,3.40
2024-02-18T02:08:54.680Z,3.70
2024-02-18T02:11:22.732Z,3.63
2024-02-18T02:13:50.775Z,3.53
2024-02-18T02:16:19.680Z,3.33
2024-02-18T02:18:47.677Z,4.00
2024-02-18T02:21:15.622Z,4.07
2024-02-18T02:23:43.477Z,3.37
2024-02-18T02:26:14.561Z,4.50
2024-02-18T02:28:49.604Z,4.37
2024-02-18T02:31:19.459Z,4.33
2024-02-18T02:33:47.432Z,4.43
2024-02-18T02:36:15.395Z,4.27
2024-02-18T02:38:43.359Z,4.60
2024-02-18T02:41:11.345Z,4.03
2024-02-18T02:43:39.273Z,4.00
2024-02-18T02:46:07.272Z,3.70
2024-02-18T02:48:36.656Z,4.07
2024-02-18T02:51:05.410Z,4.20
2024-02-18T02:53:33.293Z,3.60
2024-02-18T02:56:01.796Z,4.33
2024-02-18T02:58:29.667Z,4.40
2024-02-18T03:00:57.635Z,4.50
2024-02-18T03:03:25.735Z,4.60
2024-02-18T03:05:55.076Z,3.73
2024-02-18T03:08:23.281Z,4.40
2024-02-18T03:10:51.362Z,3.63
2024-02-18T03:13:20.370Z,3.77
2024-02-18T03:15:48.663Z,4.47
2024-02-18T03:18:19.027Z,4.90
2024-02-18T03:20:47.012Z,4.83
2024-02-18T03:23:16.235Z,5.87
2024-02-18T03:25:45.109Z,6.30
2024-02-18T03:28:13.968Z,6.03
2024-02-18T03:30:42.421Z,6.53
2024-02-18T03:33:11.163Z,5.60
2024-02-18T03:35:39.051Z,6.23
2024-02-18T03:38:06.998Z,6.00
2024-02-18T03:40:36.874Z,6.07
2024-02-18T03:43:05.198Z,6.13
2024-02-18T03:45:33.261Z,7.13
2024-02-18T03:48:01.256Z,6.67
2024-02-18T03:50:29.212Z,6.47
2024-02-18T03:52:57.084Z,5.80
2024-02-18T03:55:26.241Z,6.77
2024-02-18T03:57:55.499Z,5.80
2024-02-18T04:00:23.667Z,5.97
2024-02-18T04:02:51.622Z,6.23
2024-02-18T04:05:19.669Z,5.67
2024-02-18T04:07:47.621Z,6.40
2024-02-18T04:10:18.008Z,6.13
2024-02-18T04:12:48.166Z,6.80
2024-02-18T04:15:18.419Z,6.10
2024-02-18T04:17:46.349Z,6.23
2024-02-18T04:20:14.279Z,5.70
2024-02-18T04:22:43.379Z,6.87
2024-02-18T04:25:11.843Z,6.33
2024-02-18T04:27:39.804Z,6.70
2024-02-18T04:30:09.027Z,6.80
2024-02-18T04:32:38.323Z,5.90
2024-02-18T04:35:07.074Z,6.20
2024-02-18T04:37:35.105Z,5.80
2024-02-18T04:40:04.613Z,5.13
2024-02-18T04:42:32.637Z,5.80
2024-02-18T04:45:00.584Z,5.23
2024-02-18T04:47:28.642Z,5.97
2024-02-18T04:49:58.064Z,5.77
2024-02-18T04:52:25.915Z,5.60
2024-02-18T04:54:55.527Z,4.60
2024-02-18T04:57:23.577Z,5.70
2024-02-18T04:59:54.153Z,6.07
2024-02-18T05:02:22.117Z,6.63
2024-02-18T05:04:50.289Z,5.10
2024-02-18T05:07:19.512Z,5.30
2024-02-18T05:09:47.373Z,5.20
2024-02-18T05:12:15.210Z,5.10
2024-02-18T05:14:43.015Z,5.83
2024-02-18T05:17:11.099Z,5.87
2024-02-18T05:19:39.675Z,5.50
2024-02-18T05:22:07.690Z,6.10
2024-02-18T05:24:36.953Z,6.00
2024-02-18T05:27:05.056Z,7.20
2024-02-18T05:29:32.948Z,6.63
2024-02-18T05:32:00.859Z,6.30
2024-02-18T05:34:28.857Z,6.70
2024-02-18T05:36:57.428Z,7.30
2024-02-18T05:39:25.316Z,5.63
2024-02-18T05:41:54.705Z,6.50
2024-02-18T05:44:22.672Z,6.40
2024-02-18T05:46:50.594Z,6.23
2024-02-18T05:49:18.582Z,6.80
2024-02-18T05:51:46.632Z,6.77
2024-02-18T05:54:14.644Z,6.30
2024-02-18T05:56:42.479Z,6.70
2024-02-18T05:59:11.757Z,6.37
2024-02-18T06:01:39.854Z,6.80
2024-02-18T06:04:09.185Z,7.07
2024-02-18T06:06:37.165Z,5.80
2024-02-18T06:09:06.118Z,6.70
2024-02-18T06:11:34.092Z,5.83
2024-02-18T06:14:02.101Z,5.77
2024-02-18T06:16:31.336Z,6.30
2024-02-18T06:18:59.410Z,6.23
2024-02-18T06:21:27.510Z,6.83
2024-02-18T06:23:57.444Z,5.80
2024-02-18T06:26:25.542Z,5.73
2024-02-18T06:28:53.435Z,6.47
2024-02-18T06:31:21.383Z,6.73
2024-02-18T06:33:51.652Z,5.80
2024-02-18T06:36:19.645Z,5.80
2024-02-18T06:38:47.597Z,6.80
2024-02-18T06:41:16.563Z,6.47
2024-02-18T06:43:44.983Z,6.20
2024-02-18T06:46:13.539Z,6.13
2024-02-18T06:48:41.913Z,4.60
2024-02-18T06:51:11.882Z,5.47
2024-02-18T06:53:39.843Z,5.53
2024-02-18T06:56:08.163Z,5.87
2024-02-18T06:58:36.083Z,5.87
2024-02-18T07:01:04.175Z,6.50
2024-02-18T07:03:33.725Z,5.87
2024-02-18T07:06:01.834Z,6.70
2024-02-18T07:08:32.055Z,6.60
2024-02-18T07:11:00.230Z,6.23
2024-02-18T07:13:28.873Z,6.67
2024-02-18T07:15:57.066Z,5.50
2024-02-18T07:18:25.166Z,6.20
2024-02-18T07:20:53.516Z,6.60
2024-02-18T07:23:21.446Z,6.03
2024-02-18T07:25:50.769Z,6.17
2024-02-18T07:28:18.597Z,6.10
2024-02-18T07:30:46.842Z,6.63
2024-02-18T07:33:14.982Z,6.40
2024-02-18T07:35:43.018Z,5.53
2024-02-18T07:38:11.347Z,7.10
2024-02-18T07:40:39.381Z,5.37
2024-02-18T07:43:08.726Z,5.83
2024-02-18T07:45:36.892Z,6.37
2024-02-18T07:48:05.483Z,5.37
2024-02-18T07:50:33.480Z,6.23
2024-02-18T07:53:01.602Z,7.13
2024-02-18T07:55:32.535Z,5.33
2024-02-18T07:58:00.678Z,7.07
2024-02-18T08:00:30.468Z,6.23
2024-02-18T08:02:58.458Z,6.37
2024-02-18T08:05:26.522Z,5.33
2024-02-18T08:07:54.770Z,5.70
2024-02-18T08:10:22.757Z,5.70
2024-02-18T08:12:53.642Z,6.17
2024-02-18T08:15:22.163Z,6.20
2024-02-18T08:17:51.598Z,6.40
2024-02-18T08:20:19.655Z,6.43
2024-02-18T08:22:47.625Z,6.33
2024-02-18T08:25:15.770Z,5.27
2024-02-18T08:27:43.798Z,6.63
2024-02-18T08:30:12.170Z,5.70
2024-02-18T08:32:40.806Z,5.87
2024-02-18T08:35:10.627Z,5.80
2024-02-18T08:37:38.926Z,6.33
2024-02-18T08:40:08.606Z,6.20
2024-02-18T08:42:36.883Z,5.77
2024-02-18T08:45:05.482Z,5.73
2024-02-18T08:47:33.764Z,6.90
2024-02-18T08:50:01.799Z,5.80
2024-02-18T08:52:31.998Z,6.00
2024-02-18T08:54:59.904Z,5.00
2024-02-18T08:57:28.008Z,5.30
2024-02-18T08:59:56.227Z,5.57
2024-02-18T09:02:24.169Z,5.70
2024-02-18T09:04:52.429Z,5.77
2024-02-18T09:07:21.026Z,6.37
2024-02-18T09:09:50.946Z,5.93
2024-02-18T09:12:19.281Z,5.50
2024-02-18T09:14:47.812Z,5.73
2024-02-18T09:17:17.430Z,5.13
2024-02-18T09:19:52.841Z,5.10
2024-02-18T09:22:21.079Z,5.20
2024-02-18T09:24:51.063Z,5.67
2024-02-18T09:27:20.757Z,5.30
2024-02-18T09:29:49.545Z,5.30
2024-02-18T09:32:17.459Z,4.60
2024-02-18T09:34:45.424Z,5.83
2024-02-18T09:37:13.661Z,5.53
2024-02-18T09:39:41.626Z,5.87
2024-02-18T09:42:12.874Z,5.57
2024-02-18T09:44:43.190Z,5.77
2024-02-18T09:47:13.892Z,6.50
2024-02-18T09:49:41.909Z,6.87
2024-02-18T09:52:13.704Z,5.90
2024-02-18T09:54:41.751Z,6.00
2024-02-18T09:57:11.099Z,5.73
2024-02-18T09:59:43.705Z,5.70
2024-02-18T10:02:14.174Z,6.00
2024-02-18T10:04:47.298Z,6.50
2024-02-18T10:07:16.960Z,5.90
2024-02-18T10:09:45.596Z,5.97
2024-02-18T10:12:15.103Z,6.20
2024-02-18T10:14:43.472Z,5.87
2024-02-18T10:17:12.389Z,5.77
2024-02-18T10:19:40.587Z,6.30
2024-02-18T10:22:10.123Z,5.90
2024-02-18T10:24:38.713Z,5.83
2024-02-18T10:27:07.019Z,6.00
2024-02-18T10:29:38.139Z,6.13
2024-02-18T10:32:07.724Z,6.90
2024-02-18T10:34:36.107Z,6.43
2024-02-18T10:37:10.291Z,5.23
2024-02-18T10:39:44.885Z,5.70
2024-02-18T10:42:17.582Z,5.33
2024-02-18T10:44:52.462Z,4.73
2024-02-18T10:47:24.844Z,4.87
2024-02-18T10:50:00.762Z,5.90
2024-02-18T10:52:39.596Z,5.10
2024-02-18T10:55:13.078Z,4.83
2024-02-18T10:57:46.224Z,4.00
2024-02-18T11:00:18.425Z,4.40
2024-02-18T11:02:52.420Z,4.10
2024-02-18T11:05:21.336Z,4.30
2024-02-18T11:07:50.365Z,4.43
2024-02-18T11:10:19.411Z,4.23
2024-02-18T11:12:48.645Z,3.80
2024-02-18T11:15:17.852Z,3.70
2024-02-18T11:17:46.217Z,3.30
2024-02-18T11:20:17.573Z,3.57
2024-02-18T11:22:48.556Z,4.33
2024-02-18T11:25:18.930Z,3.53
2024-02-18T11:27:47.888Z,3.47
2024-02-18T11:30:18.410Z,2.80
2024-02-18T11:32:46.455Z,2.90
2024-02-18T11:35:18.629Z,3.57
2024-02-18T11:37:46.949Z,3.57
2024-02-18T11:40:19.381Z,3.10
2024-02-18T11:42:48.784Z,2.90
2024-02-18T11:45:20.702Z,3.07
2024-02-18T11:47:49.540Z,2.50
2024-02-18T11:50:19.388Z,2.70
2024-02-18T11:52:49.389Z,2.93
2024-02-18T11:55:18.568Z,3.47
2024-02-18T11:57:47.214Z,2.87
2024-02-18T12:00:18.827Z,3.00
2024-02-18T12:02:51.861Z,3.13
2024-02-18T12:05:22.199Z,3.20
2024-02-18T12:07:51.247Z,2.47
2024-02-18T12:10:19.683Z,2.93
2024-02-18T12:12:47.969Z,2.53
2024-02-18T12:15:22.700Z,2.40
2024-02-18T12:17:54.237Z,3.17
2024-02-18T12:20:24.098Z,2.97
2024-02-18T12:22:52.394Z,2.83
2024-02-18T12:25:22.233Z,2.63
2024-02-18T12:27:51.590Z,2.60
2024-02-18T12:30:23.713Z,3.00
2024-02-18T12:32:54.293Z,3.03
2024-02-18T12:35:24.457Z,3.20
2024-02-18T12:37:53.023Z,3.13
2024-02-18T12:40:21.118Z,3.10
2024-02-18T12:43:04.614Z,3.47
2024-02-18T12:45:45.016Z,3.27
2024-02-18T12:48:17.707Z,2.80
2024-02-18T12:50:45.994Z,2.87
2024-02-18T12:53:14.015Z,2.63
2024-02-18T12:55:42.406Z,2.30
2024-02-18T12:58:10.877Z,2.50
2024-02-18T13:00:40.787Z,2.73
2024-02-18T13:03:12.529Z,3.17
2024-02-18T13:05:42.725Z,2.70
2024-02-18T13:08:10.678Z,2.80
2024-02-18T13:10:38.711Z,2.60
2024-02-18T13:13:07.738Z,3.50
2024-02-18T13:15:36.047Z,3.83
2024-02-18T13:18:05.958Z,2.73
2024-02-18T13:20:34.296Z,2.73
2024-02-18T13:23:02.188Z,3.17
2024-02-18T13:25:30.057Z,2.80
2024-02-18T13:27:58.338Z,2.73
2024-02-18T13:30:26.513Z,2.20
2024-02-18T13:32:54.582Z,1.50
2024-02-18T13:35:23.916Z,1.40
2024-02-18T13:37:51.890Z,1.53
2024-02-18T13:40:19.961Z,1.50
2024-02-18T13:42:47.962Z,1.30
2024-02-18T13:45:15.982Z,1.63
2024-02-18T13:47:44.816Z,1.37
2024-02-18T13:50:14.179Z,1.50
2024-02-18T13:52:43.601Z,2.13
2024-02-18T13:55:11.701Z,1.73
2024-02-18T13:57:39.746Z,1.70
2024-02-18T14:00:08.996Z,1.87
2024-02-18T14:02:36.874Z,1.40
2024-02-18T14:05:05.124Z,1.83
2024-02-18T14:07:33.005Z,2.10
2024-02-18T14:10:02.457Z,1.27
2024-02-18T14:12:30.490Z,1.20
2024-02-18T14:14:59.066Z,1.27
2024-02-18T14:17:27.027Z,1.70
2024-02-18T14:19:55.408Z,1.30
2024-02-18T14:22:23.596Z,1.57
2024-02-18T14:24:55.735Z,1.37
2024-02-18T14:27:25.131Z,1.50
2024-02-18T14:29:53.018Z,1.83
2024-02-18T14:32:21.560Z,1.27
2024-02-18T14:34:52.544Z,1.33
2024-02-18T14:37:22.029Z,1.17
2024-02-18T14:39:49.994Z,1.80
2024-02-18T14:42:17.950Z,1.60
2024-02-18T14:44:47.205Z,1.40
2024-02-18T14:47:15.866Z,1.40
2024-02-18T14:49:48.094Z,1.63
2024-02-18T14:52:16.641Z,1.20
2024-02-18T14:54:46.102Z,1.20
2024-02-18T14:57:13.985Z,1.77
2024-02-18T14:59:41.961Z,1.20
2024-02-18T15:02:11.253Z,1.30
2024-02-18T15:04:39.456Z,1.30
2024-02-18T15:07:09.022Z,1.33
2024-02-18T15:09:37.724Z,1.43
2024-02-18T15:12:06.450Z,1.40
2024-02-18T15:14:34.346Z,1.70
2024-02-18T15:17:02.396Z,2.00
2024-02-18T15:19:33.673Z,1.60
2024-02-18T15:22:01.747Z,1.57
2024-02-18T15:24:30.314Z,1.40
2024-02-18T15:26:58.278Z,1.70
2024-02-18T15:29:26.242Z,1.47
2024-02-18T15:31:54.176Z,1.53
2024-02-18T15:34:22.237Z,1.30
2024-02-18T15:36:51.706Z,1.70
2024-02-18T15:39:19.654Z,1.80
2024-02-18T15:41:47.556Z,1.57
2024-02-18T15:44:15.445Z,1.90
2024-02-18T15:46:43.336Z,1.90
2024-02-18T15:49:11.290Z,1.83
2024-02-18T15:51:41.264Z,2.27
2024-02-18T15:54:10.890Z,1.97
2024-02-18T15:56:38.750Z,1.80
2024-02-18T15:59:09.335Z,2.63
2024-02-18T16:01:40.995Z,2.03
2024-02-18T16:04:10.575Z,2.20
2024-02-18T16:06:40.412Z,2.60
2024-02-18T16:09:10.470Z,2.00
2024-02-18T16:11:38.484Z,3.83
2024-02-18T16:14:08.437Z,2.00
2024-02-18T16:16:36.352Z,2.23
2024-02-18T16:19:04.382Z,2.50
2024-02-18T16:21:36.299Z,3.20
2024-02-18T16:24:04.433Z,3.70
2024-02-18T16:26:33.926Z,2.60
2024-02-18T16:29:01.874Z,1.93
2024-02-18T16:31:29.823Z,2.10
2024-02-18T16:33:58.021Z,2.67
2024-02-18T16:36:26.183Z,4.07
2024-02-18T16:38:54.183Z,3.27
2024-02-18T16:41:22.093Z,2.40
2024-02-18T16:43:51.345Z,3.50
2024-02-18T16:46:19.552Z,2.10
2024-02-18T16:48:47.672Z,2.00
2024-02-18T16:51:24.064Z,2.37
2024-02-18T16:53:52.002Z,2.63
2024-02-18T16:56:21.158Z,2.43
2024-02-18T16:58:50.353Z,2.97
2024-02-18T17:01:21.511Z,2.37
2024-02-18T17:03:49.753Z,2.50
2024-02-18T17:06:18.521Z,2.60
2024-02-18T17:08:48.604Z,2.03
2024-02-18T17:11:19.348Z,2.60
2024-02-18T17:13:50.206Z,2.50
2024-02-18T17:16:19.569Z,2.23
2024-02-18T17:18:47.877Z,3.80
2024-02-18T17:21:16.014Z,5.30
2024-02-18T17:23:46.645Z,2.97
2024-02-18T17:26:14.837Z,2.73
2024-02-18T17:28:42.767Z,2.77
2024-02-18T17:31:10.734Z,3.67
2024-02-18T17:33:40.476Z,11.60
2024-02-18T17:36:08.742Z,8.30
2024-02-18T17:38:41.614Z,3.30
2024-02-18T17:41:10.157Z,2.13
2024-02-18T17:43:38.232Z,2.53
2024-02-18T17:46:07.145Z,2.20
2024-02-18T17:48:35.283Z,2.27
2024-02-18T17:51:05.562Z,2.20
2024-02-18T17:53:33.502Z,3.27
2024-02-18T17:56:01.801Z,30.73
2024-02-18T17:58:31.260Z,18.50
2024-02-18T18:00:59.268Z,6.30
2024-02-18T18:03:29.768Z,12.10
2024-02-18T18:05:57.653Z,3.63
2024-02-18T18:08:28.249Z,2.30
2024-02-18T18:10:56.553Z,2.57
2024-02-18T18:13:24.714Z,1.90
2024-02-18T18:15:54.336Z,2.70
2024-02-18T18:18:22.600Z,1.57
2024-02-18T18:20:50.560Z,4.23
2024-02-18T18:23:18.465Z,2.90
2024-02-18T18:25:47.747Z,4.13
2024-02-18T18:28:15.917Z,2.00
2024-02-18T18:30:44.218Z,2.10
2024-02-18T18:33:12.298Z,1.70
2024-02-18T18:35:40.212Z,9.30
2024-02-18T18:38:08.093Z,8.73
2024-02-18T18:40:36.055Z,2.33
2024-02-18T18:43:05.674Z,2.27
2024-02-18T18:45:33.673Z,1.77
2024-02-18T18:48:01.647Z,2.10
2024-02-18T18:50:29.762Z,3.47
2024-02-18T18:52:59.240Z,1.70
2024-02-18T18:55:27.796Z,2.00
2024-02-18T18:57:56.477Z,2.13
2024-02-18T19:00:29.182Z,2.13
2024-02-18T19:02:57.279Z,2.10
2024-02-18T19:05:25.665Z,2.30
2024-02-18T19:07:53.658Z,1.90
2024-02-18T19:10:22.016Z,1.73
2024-02-18T19:12:50.210Z,1.50
2024-02-18T19:15:19.941Z,1.87
2024-02-18T19:17:49.483Z,1.90
2024-02-18T19:20:17.705Z,1.70
2024-02-18T19:22:45.623Z,2.23
2024-02-18T19:25:13.891Z,2.00
2024-02-18T19:27:41.834Z,1.90
2024-02-18T19:30:15.153Z,1.37
2024-02-18T19:32:43.163Z,1.60
2024-02-18T19:35:12.944Z,1.50
2024-02-18T19:37:40.966Z,1.90
2024-02-18T19:40:10.626Z,1.40
2024-02-18T19:42:38.692Z,1.20
2024-02-18T19:45:07.616Z,1.57
2024-02-18T19:47:35.672Z,4.30
2024-02-18T19:50:04.572Z,1.90
2024-02-18T19:52:33.831Z,1.67
2024-02-18T19:55:08.197Z,2.30
2024-02-18T19:57:37.532Z,2.00
2024-02-18T20:00:06.804Z,2.90
2024-02-18T20:02:34.693Z,2.27
2024-02-18T20:05:02.643Z,1.97
2024-02-18T20:07:30.728Z,1.70
2024-02-18T20:10:00.002Z,1.97
2024-02-18T20:12:29.750Z,2.47
2024-02-18T20:14:58.076Z,2.27
2024-02-18T20:17:26.188Z,1.20
2024-02-18T20:19:54.327Z,1.83
2024-02-18T20:22:22.761Z,1.93
2024-02-18T20:24:52.828Z,1.70
2024-02-18T20:27:22.148Z,1.60
2024-02-18T20:29:50.257Z,1.20
2024-02-18T20:32:18.130Z,1.60
2024-02-18T20:34:48.321Z,1.40
2024-02-18T20:37:16.479Z,1.40
2024-02-18T20:39:44.694Z,1.40
2024-02-18T20:42:12.703Z,1.13
2024-02-18T20:44:42.077Z,1.57
2024-02-18T20:47:10.997Z,1.20
2024-02-18T20:49:39.285Z,1.40
2024-02-18T20:52:08.991Z,1.10
2024-02-18T20:54:37.169Z,1.30
2024-02-18T20:57:06.408Z,1.10
2024-02-18T20:59:34.361Z,1.03
2024-02-18T21:02:03.723Z,1.00
2024-02-18T21:04:31.770Z,1.00
2024-02-18T21:06:59.657Z,1.03
2024-02-18T21:09:28.054Z,1.00
2024-02-18T21:11:55.913Z,0.80
2024-02-18T21:14:24.376Z,0.90
2024-02-18T21:16:53.695Z,0.93
2024-02-18T21:19:23.106Z,0.80
2024-02-18T21:21:51.175Z,1.00
2024-02-18T21:24:19.256Z,0.80
2024-02-18T21:26:47.376Z,0.90
2024-02-18T21:29:15.331Z,1.37
2024-02-18T21:31:43.242Z,0.87
2024-02-18T21:34:12.414Z,0.83
2024-02-18T21:36:43.599Z,0.97
2024-02-18T21:39:11.941Z,1.00
2024-02-18T21:41:45.642Z,0.80
2024-02-18T21:44:13.545Z,0.70
2024-02-18T21:46:41.481Z,0.90
2024-02-18T21:49:09.441Z,1.00
2024-02-18T21:51:37.564Z,0.90
2024-02-18T21:54:06.889Z,0.87
2024-02-18T21:56:34.971Z,0.80
2024-02-18T21:59:02.931Z,0.90
2024-02-18T22:01:32.392Z,0.97
2024-02-18T22:04:00.556Z,0.80
2024-02-18T22:06:28.580Z,1.00
2024-02-18T22:08:56.581Z,0.90
2024-02-18T22:11:25.844Z,0.90
2024-02-18T22:13:53.728Z,1.07
2024-02-18T22:16:21.650Z,1.00
2024-02-18T22:18:50.218Z,0.70
2024-02-18T22:21:21.254Z,1.00
2024-02-18T22:23:49.270Z,1.00
2024-02-18T22:26:17.188Z,1.00
2024-02-18T22:28:46.564Z,0.80
2024-02-18T22:31:14.514Z,0.90
2024-02-18T22:33:42.511Z,0.83
2024-02-18T22:36:10.495Z,1.03
2024-02-18T22:38:39.207Z,1.00
2024-02-18T22:41:08.405Z,1.00
2024-02-18T22:43:36.313Z,1.03
2024-02-18T22:46:05.918Z,1.80
2024-02-18T22:48:34.006Z,1.00
2024-02-18T22:51:02.115Z,1.43
2024-02-18T22:53:30.032Z,1.83
2024-02-18T22:55:57.916Z,1.47
2024-02-18T22:58:25.804Z,1.23
2024-02-18T23:00:53.943Z,1.47
2024-02-18T23:03:23.437Z,1.50
2024-02-18T23:05:51.664Z,1.30
2024-02-18T23:08:19.566Z,1.10
2024-02-18T23:10:47.503Z,0.93
2024-02-18T23:13:15.497Z,1.23
2024-02-18T23:15:43.684Z,1.17
2024-02-18T23:18:11.907Z,0.93
2024-02-18T23:20:43.174Z,1.13
2024-02-18T23:23:11.310Z,1.27
2024-02-18T23:25:39.210Z,1.00
2024-02-18T23:28:07.383Z,0.90
2024-02-18T23:30:35.405Z,1.20
2024-02-18T23:33:03.943Z,1.00
2024-02-18T23:35:31.936Z,1.10
2024-02-18T23:38:01.256Z,0.90
2024-02-18T23:40:30.381Z,0.97
2024-02-18T23:42:58.368Z,1.07
2024-02-18T23:45:26.282Z,0.97
2024-02-18T23:47:54.346Z,1.07
2024-02-18T23:50:22.554Z,1.20
2024-02-18T23:52:50.519Z,1.03
2024-02-18T23:55:19.898Z,1.07
2024-02-18T23:57:47.935Z,1.10
